Hawk — LAGF7 — position and weather

sailwx.info

Track history (hours):
 
Tides and Currents Weather Stations Pressure Air Temp Water Temp Dewpoint Dewpoint Depression Visibility Wind Speed Wind Dir Waves Ship Positions

Hawk

Last reported at 2015-Apr-19 18:33 UTC. Time now 2015-Apr-19 19:07 UTC.
Position N 59°02' E 005°41'.

Length 223 m; draft 9.5 m.

Type: Cargo ship. MMSI: 259848000.

Date/timePositionNaut miles runAvg speedWind from/ knotsBaromVisibWave heightAir tempDewpointWater temp
2015-Apr-19 18:33N 59°02' E 005°41'0 0.1
2015-Apr-19 17:33N 59°02' E 005°41'0 0.0
2015-Apr-19 16:33N 59°02' E 005°41'0 0.0
2015-Apr-19 15:33N 59°02' E 005°41'0 0.0
2015-Apr-19 14:33N 59°02' E 005°41'0 0.0
2015-Apr-19 13:33N 59°02' E 005°41'0 0.1
2015-Apr-19 12:33N 59°02' E 005°41'0 0.1
2015-Apr-19 11:33N 59°02' E 005°41'0 0.0
2015-Apr-19 10:33N 59°02' E 005°41'0 0.0
2015-Apr-19 09:33N 59°02' E 005°41'0 0.0
2015-Apr-19 08:33N 59°02' E 005°41'0 0.0
2015-Apr-19 07:33N 59°02' E 005°41'0 0.1
2015-Apr-19 06:33N 59°02' E 005°41'0 0.1
2015-Apr-19 05:33N 59°01' E 005°41'0 0.0
2015-Apr-19 04:33N 59°01' E 005°41'0 0.1
2015-Apr-19 03:33N 59°02' E 005°41'0 0.1
2015-Apr-19 02:33N 59°02' E 005°41'0 0.0
2015-Apr-19 01:33N 59°02' E 005°41'0 0.1
2015-Apr-19 00:33N 59°02' E 005°41'0 0.0
2015-Apr-18 23:33N 59°02' E 005°41'0 0.0
2015-Apr-18 22:33N 59°02' E 005°41'0 0.0
2015-Apr-18 21:33N 59°02' E 005°41'0 0.0
2015-Apr-18 20:33N 59°02' E 005°41'3 2.9
2015-Apr-18 19:33N 59°03' E 005°36'7 6.8
2015-Apr-18 18:33N 59°06' E 005°24'6 6.2
2015-Apr-18 17:33N 59°02' E 005°15'4 3.8
2015-Apr-18 16:33N 58°58' E 005°15'5 4.7
2015-Apr-18 15:33N 58°54' E 005°13'5 5.4
2015-Apr-18 14:33N 58°49' E 005°10'5 5.4
2015-Apr-18 13:33N 58°44' E 005°06'6 6.1
2015-Apr-18 12:33N 58°39' E 004°59'266 8.3
2015-Apr-17 04:33N 54°13' E 004°36'1210.6
2015-Apr-17 03:23N 54°00' E 004°38'2210.6
2015-Apr-17 01:18N 53°43' E 004°14'3110.4
2015-Apr-16 22:22N 53°21' E 003°38'910.6
2015-Apr-16 21:31N 53°13' E 003°32'10 9.7
2015-Apr-16 20:32N 53°04' E 003°26'9 9.4
2015-Apr-16 19:33N 52°56' E 003°20'9 9.0
2015-Apr-16 18:33N 52°48' E 003°14'9 9.0
2015-Apr-16 17:33N 52°40' E 003°08'10 9.5
2015-Apr-16 16:33N 52°32' E 002°59'1010.3
2015-Apr-16 15:33N 52°23' E 002°51'1110.6
2015-Apr-16 14:33N 52°13' E 002°43'1111.5
2015-Apr-16 13:33N 52°02' E 002°40'1111.0
2015-Apr-16 12:33N 51°51' E 002°37'1111.1
2015-Apr-16 11:33N 51°41' E 002°30'1110.7
2015-Apr-16 10:33N 51°32' E 002°20'1110.6
2015-Apr-16 09:33N 51°24' E 002°11'1110.5
2015-Apr-16 08:33N 51°14' E 002°03'9 9.4
2015-Apr-16 07:33N 51°09' E 001°51'9 9.1
2015-Apr-16 06:34N 51°02' E 001°41'7 7.2
2015-Apr-16 05:33N 50°57' E 001°32'7 6.9
2015-Apr-16 04:33N 50°52' E 001°26'8 8.2
2015-Apr-16 03:33N 50°44' E 001°23'9 8.9
2015-Apr-16 02:33N 50°37' E 001°14'9 8.9
2015-Apr-16 01:33N 50°31' E 001°03'8 8.2
2015-Apr-16 00:33N 50°28' E 000°51'9 7.9
2015-Apr-15 23:29N 50°26' E 000°38'8 9.2
2015-Apr-15 22:33N 50°23' E 000°26'1111.4
2015-Apr-15 21:34N 50°20' E 000°09'1412.3
2015-Apr-15 20:25N 50°16' W 000°13'1112.9
2015-Apr-15 19:33N 50°13' W 000°29'1413.7
2015-Apr-15 18:33N 50°10' W 000°50'1614.3
2015-Apr-15 17:28N 50°06' W 001°13'1314.7
2015-Apr-15 16:33N 50°03' W 001°34'1414.1
2015-Apr-15 15:33N 49°59' W 001°55'1313.2
2015-Apr-15 14:34N 49°56' W 002°15'1211.8
2015-Apr-15 13:33N 49°53' W 002°33'1211.2
2015-Apr-15 12:31N 49°50' W 002°50'1110.7
2015-Apr-15 11:30N 49°46' W 003°06'1510.7
2015-Apr-15 10:09N 49°38' W 003°25'7510.8
2015-Apr-15 03:16N 49°01' W 005°04'2212.1
2015-Apr-15 01:27N 48°50' W 005°33'1111.8
2015-Apr-15 00:30N 48°41' W 005°44'1212.8
2015-Apr-14 23:33N 48°30' W 005°50'1412.5
2015-Apr-14 22:25N 48°17' W 006°00'1311.7
2015-Apr-14 21:20N 48°06' W 006°09'46710.1
2015-Apr-12 23:09N 40°45' W 009°44'64 9.6
2015-Apr-12 16:29N 39°41' W 009°43'1010.9
2015-Apr-12 15:33N 39°31' W 009°43'1111.3
2015-Apr-12 14:33N 39°19' W 009°43'1211.8
2015-Apr-12 13:33N 39°07' W 009°42'1211.9
2015-Apr-12 12:34N 38°56' W 009°42'1312.5
2015-Apr-12 11:33N 38°43' W 009°42'1010.1
2015-Apr-12 10:33N 38°39' W 009°30'3 2.6
2015-Apr-12 09:33N 38°39' W 009°27'0 0.2
2015-Apr-12 08:33N 38°38' W 009°27'3 2.8
2015-Apr-12 07:33N 38°36' W 009°28'3 3.4
2015-Apr-12 06:33N 38°33' W 009°30'3 3.4
2015-Apr-12 05:33N 38°30' W 009°32'3 3.5
2015-Apr-12 04:33N 38°27' W 009°33'4 3.6
2015-Apr-12 03:33N 38°23' W 009°35'5 5.4
2015-Apr-12 02:33N 38°18' W 009°38'7 7.3
2015-Apr-12 01:34N 38°12' W 009°42'1010.2
2015-Apr-12 00:33N 38°02' W 009°48'10 9.7
2015-Apr-11 23:32N 37°54' W 009°53'9 8.8
2015-Apr-11 22:33N 37°46' W 009°57'8 8.0
2015-Apr-11 21:34N 37°38' W 010°02'8 8.0
2015-Apr-11 20:33N 37°31' W 010°06'8 7.9
2015-Apr-11 19:33N 37°24' W 010°10'8 8.3
2015-Apr-11 18:31N 37°16' W 010°15'8 8.7
2015-Apr-11 17:33N 37°09' W 010°19'9 9.0
2015-Apr-11 16:34N 37°00' W 010°24'11 9.6
2015-Apr-11 15:22N 36°50' W 010°29'  
Track history (hours):
 
Tides and Currents Weather Stations Pressure Air Temp Water Temp Dewpoint Dewpoint Depression Visibility Wind Speed Wind Dir Waves Ship Positions

Hawk

Last reported at 2015-Apr-19 18:33 UTC. Time now 2015-Apr-19 19:07 UTC.
Position N 59°02' E 005°41'.

Length 223 m; draft 9.5 m.

Type: Cargo ship. MMSI: 259848000.

Date/timePositionNaut miles runAvg speedWind from/ knotsBaromVisibWave heightAir tempDewpointWater temp
2015-Apr-19 18:33N 59°02' E 005°41'0 0.1
2015-Apr-19 17:33N 59°02' E 005°41'0 0.0
2015-Apr-19 16:33N 59°02' E 005°41'0 0.0
2015-Apr-19 15:33N 59°02' E 005°41'0 0.0
2015-Apr-19 14:33N 59°02' E 005°41'0 0.0
2015-Apr-19 13:33N 59°02' E 005°41'0 0.1
2015-Apr-19 12:33N 59°02' E 005°41'0 0.1
2015-Apr-19 11:33N 59°02' E 005°41'0 0.0
2015-Apr-19 10:33N 59°02' E 005°41'0 0.0
2015-Apr-19 09:33N 59°02' E 005°41'0 0.0
2015-Apr-19 08:33N 59°02' E 005°41'0 0.0
2015-Apr-19 07:33N 59°02' E 005°41'0 0.1
2015-Apr-19 06:33N 59°02' E 005°41'0 0.1
2015-Apr-19 05:33N 59°01' E 005°41'0 0.0
2015-Apr-19 04:33N 59°01' E 005°41'0 0.1
2015-Apr-19 03:33N 59°02' E 005°41'0 0.1
2015-Apr-19 02:33N 59°02' E 005°41'0 0.0
2015-Apr-19 01:33N 59°02' E 005°41'0 0.1
2015-Apr-19 00:33N 59°02' E 005°41'0 0.0
2015-Apr-18 23:33N 59°02' E 005°41'0 0.0
2015-Apr-18 22:33N 59°02' E 005°41'0 0.0
2015-Apr-18 21:33N 59°02' E 005°41'0 0.0
2015-Apr-18 20:33N 59°02' E 005°41'3 2.9
2015-Apr-18 19:33N 59°03' E 005°36'7 6.8
2015-Apr-18 18:33N 59°06' E 005°24'6 6.2
2015-Apr-18 17:33N 59°02' E 005°15'4 3.8
2015-Apr-18 16:33N 58°58' E 005°15'5 4.7
2015-Apr-18 15:33N 58°54' E 005°13'5 5.4
2015-Apr-18 14:33N 58°49' E 005°10'5 5.4
2015-Apr-18 13:33N 58°44' E 005°06'6 6.1
2015-Apr-18 12:33N 58°39' E 004°59'266 8.3
2015-Apr-17 04:33N 54°13' E 004°36'1210.6
2015-Apr-17 03:23N 54°00' E 004°38'2210.6
2015-Apr-17 01:18N 53°43' E 004°14'3110.4
2015-Apr-16 22:22N 53°21' E 003°38'910.6
2015-Apr-16 21:31N 53°13' E 003°32'10 9.7
2015-Apr-16 20:32N 53°04' E 003°26'9 9.4
2015-Apr-16 19:33N 52°56' E 003°20'9 9.0
2015-Apr-16 18:33N 52°48' E 003°14'9 9.0
2015-Apr-16 17:33N 52°40' E 003°08'10 9.5
2015-Apr-16 16:33N 52°32' E 002°59'1010.3
2015-Apr-16 15:33N 52°23' E 002°51'1110.6
2015-Apr-16 14:33N 52°13' E 002°43'1111.5
2015-Apr-16 13:33N 52°02' E 002°40'1111.0
2015-Apr-16 12:33N 51°51' E 002°37'1111.1
2015-Apr-16 11:33N 51°41' E 002°30'1110.7
2015-Apr-16 10:33N 51°32' E 002°20'1110.6
2015-Apr-16 09:33N 51°24' E 002°11'1110.5
2015-Apr-16 08:33N 51°14' E 002°03'9 9.4
2015-Apr-16 07:33N 51°09' E 001°51'9 9.1
2015-Apr-16 06:34N 51°02' E 001°41'7 7.2
2015-Apr-16 05:33N 50°57' E 001°32'7 6.9
2015-Apr-16 04:33N 50°52' E 001°26'8 8.2
2015-Apr-16 03:33N 50°44' E 001°23'9 8.9
2015-Apr-16 02:33N 50°37' E 001°14'9 8.9
2015-Apr-16 01:33N 50°31' E 001°03'8 8.2
2015-Apr-16 00:33N 50°28' E 000°51'9 7.9
2015-Apr-15 23:29N 50°26' E 000°38'8 9.2
2015-Apr-15 22:33N 50°23' E 000°26'1111.4
2015-Apr-15 21:34N 50°20' E 000°09'1412.3
2015-Apr-15 20:25N 50°16' W 000°13'1112.9
2015-Apr-15 19:33N 50°13' W 000°29'1413.7
2015-Apr-15 18:33N 50°10' W 000°50'1614.3
2015-Apr-15 17:28N 50°06' W 001°13'1314.7
2015-Apr-15 16:33N 50°03' W 001°34'1414.1
2015-Apr-15 15:33N 49°59' W 001°55'1313.2
2015-Apr-15 14:34N 49°56' W 002°15'1211.8
2015-Apr-15 13:33N 49°53' W 002°33'1211.2
2015-Apr-15 12:31N 49°50' W 002°50'1110.7
2015-Apr-15 11:30N 49°46' W 003°06'1510.7
2015-Apr-15 10:09N 49°38' W 003°25'7510.8
2015-Apr-15 03:16N 49°01' W 005°04'2212.1
2015-Apr-15 01:27N 48°50' W 005°33'1111.8
2015-Apr-15 00:30N 48°41' W 005°44'1212.8
2015-Apr-14 23:33N 48°30' W 005°50'1412.5
2015-Apr-14 22:25N 48°17' W 006°00'1311.7
2015-Apr-14 21:20N 48°06' W 006°09'46710.1
2015-Apr-12 23:09N 40°45' W 009°44'64 9.6
2015-Apr-12 16:29N 39°41' W 009°43'1010.9
2015-Apr-12 15:33N 39°31' W 009°43'1111.3
2015-Apr-12 14:33N 39°19' W 009°43'1211.8
2015-Apr-12 13:33N 39°07' W 009°42'1211.9
2015-Apr-12 12:34N 38°56' W 009°42'1312.5
2015-Apr-12 11:33N 38°43' W 009°42'1010.1
2015-Apr-12 10:33N 38°39' W 009°30'3 2.6
2015-Apr-12 09:33N 38°39' W 009°27'0 0.2
2015-Apr-12 08:33N 38°38' W 009°27'3 2.8
2015-Apr-12 07:33N 38°36' W 009°28'3 3.4
2015-Apr-12 06:33N 38°33' W 009°30'3 3.4
2015-Apr-12 05:33N 38°30' W 009°32'3 3.5
2015-Apr-12 04:33N 38°27' W 009°33'4 3.6
2015-Apr-12 03:33N 38°23' W 009°35'5 5.4
2015-Apr-12 02:33N 38°18' W 009°38'7 7.3
2015-Apr-12 01:34N 38°12' W 009°42'1010.2
2015-Apr-12 00:33N 38°02' W 009°48'10 9.7
2015-Apr-11 23:32N 37°54' W 009°53'9 8.8
2015-Apr-11 22:33N 37°46' W 009°57'8 8.0
2015-Apr-11 21:34N 37°38' W 010°02'8 8.0
2015-Apr-11 20:33N 37°31' W 010°06'8 7.9
2015-Apr-11 19:33N 37°24' W 010°10'8 8.3
2015-Apr-11 18:31N 37°16' W 010°15'8 8.7
2015-Apr-11 17:33N 37°09' W 010°19'9 9.0
2015-Apr-11 16:34N 37°00' W 010°24'11 9.6
2015-Apr-11 15:22N 36°50' W 010°29'  

Dump ship's entire track history